createdAt,value
2022-12-23T00:01:52.696Z,10.40
2022-12-23T00:04:23.437Z,10.40
2022-12-23T00:06:54.258Z,10.40
2022-12-23T00:09:24.921Z,10.40
2022-12-23T00:12:14.523Z,10.40
2022-12-23T00:15:02.722Z,10.30
2022-12-23T00:17:33.442Z,10.40
2022-12-23T00:20:04.662Z,10.40
2022-12-23T00:22:53.154Z,10.40
2022-12-23T00:25:25.900Z,10.40
2022-12-23T00:28:02.203Z,10.40
2022-12-23T00:30:32.958Z,10.40
2022-12-23T00:33:03.616Z,10.30
2022-12-23T00:35:34.313Z,10.30
2022-12-23T00:38:05.023Z,10.30
2022-12-23T00:40:53.589Z,10.30
2022-12-23T00:43:25.594Z,10.40
2022-12-23T00:45:56.692Z,10.30
2022-12-23T00:48:45.025Z,10.30
2022-12-23T00:51:15.653Z,10.30
2022-12-23T00:53:46.293Z,10.30
2022-12-23T00:56:17.158Z,10.30
2022-12-23T00:58:47.714Z,10.30
2022-12-23T01:01:36.370Z,10.40
2022-12-23T01:04:24.962Z,10.30
2022-12-23T01:06:55.740Z,10.30
2022-12-23T01:09:26.693Z,10.40
2022-12-23T01:11:57.838Z,10.40
2022-12-23T01:14:29.608Z,10.50
2022-12-23T01:17:00.414Z,10.50
2022-12-23T01:19:31.400Z,10.50
2022-12-23T01:22:02.177Z,10.50
2022-12-23T01:24:34.064Z,10.40
2022-12-23T01:27:04.881Z,10.40
2022-12-23T01:29:35.587Z,10.40
2022-12-23T01:32:06.677Z,10.40
2022-12-23T01:34:37.909Z,10.40
2022-12-23T01:37:08.712Z,10.40
2022-12-23T01:39:39.349Z,10.40
2022-12-23T01:42:32.435Z,10.40
2022-12-23T01:45:06.223Z,10.40
2022-12-23T01:47:40.441Z,10.40
2022-12-23T01:52:54.766Z,10.50
2022-12-23T01:58:10.584Z,10.50
2022-12-23T02:01:00.836Z,10.50
2022-12-23T02:03:44.492Z,10.40
2022-12-23T02:06:38.599Z,10.40
2022-12-23T02:09:20.660Z,10.40
2022-12-23T02:12:09.209Z,10.40
2022-12-23T02:15:10.757Z,10.40
2022-12-23T02:20:39.656Z,10.40
2022-12-23T02:23:33.507Z,10.50
2022-12-23T02:26:28.502Z,10.50
2022-12-23T02:29:09.513Z,10.50
2022-12-23T02:31:44.246Z,10.50
2022-12-23T02:34:17.961Z,10.40
2022-12-23T02:36:52.682Z,10.40
2022-12-23T02:39:26.258Z,10.30
2022-12-23T02:42:00.401Z,10.30
2022-12-23T02:44:34.543Z,10.30
2022-12-23T02:49:48.478Z,10.30
2022-12-23T02:52:22.283Z,10.30
2022-12-23T02:54:55.811Z,10.30
2022-12-23T02:57:29.638Z,10.40
2022-12-23T03:00:01.693Z,10.40
2022-12-23T03:02:34.038Z,10.40
2022-12-23T03:05:04.983Z,10.40
2022-12-23T03:07:38.547Z,10.40
2022-12-23T03:10:12.880Z,10.40
2022-12-23T03:12:46.668Z,10.40
2022-12-23T03:15:25.950Z,10.40
2022-12-23T03:18:03.257Z,10.40
2022-12-23T03:20:38.598Z,10.40
2022-12-23T03:23:13.647Z,10.40
2022-12-23T03:25:47.193Z,10.40
2022-12-23T03:28:20.782Z,10.40
2022-12-23T03:30:54.493Z,10.30
2022-12-23T03:33:28.568Z,10.30
2022-12-23T03:36:02.218Z,10.30
2022-12-23T03:38:35.590Z,10.30
2022-12-23T03:41:09.394Z,10.30
2022-12-23T03:43:48.518Z,10.20
2022-12-23T03:46:18.679Z,10.20
2022-12-23T03:48:52.612Z,10.20
2022-12-23T03:51:26.186Z,10.20
2022-12-23T03:54:00.004Z,10.20
2022-12-23T03:56:34.027Z,10.20
2022-12-23T03:59:08.143Z,10.20
2022-12-23T04:01:43.281Z,10.20
2022-12-23T04:04:17.839Z,10.20
2022-12-23T04:06:52.395Z,10.30
2022-12-23T04:09:25.041Z,10.30
2022-12-23T04:11:58.329Z,10.30
2022-12-23T04:14:29.137Z,10.30
2022-12-23T04:17:00.327Z,10.30
2022-12-23T04:19:31.522Z,10.30
2022-12-23T04:22:02.250Z,10.30
2022-12-23T04:24:33.116Z,10.30
2022-12-23T04:27:03.713Z,10.30
2022-12-23T04:29:34.590Z,10.30
2022-12-23T04:32:05.465Z,10.30
2022-12-23T04:34:36.123Z,10.30
2022-12-23T04:37:06.852Z,10.30
2022-12-23T04:39:37.502Z,10.30
2022-12-23T04:42:08.231Z,10.30
2022-12-23T04:44:38.889Z,10.30
2022-12-23T04:47:09.745Z,10.30
2022-12-23T04:49:40.585Z,10.30
2022-12-23T04:52:11.439Z,10.30
2022-12-23T04:54:46.054Z,10.30
2022-12-23T04:57:14.482Z,10.30
2022-12-23T04:59:45.201Z,10.30
2022-12-23T05:02:15.946Z,10.30
2022-12-23T05:04:46.899Z,10.30
2022-12-23T05:07:17.529Z,10.30
2022-12-23T05:09:48.240Z,10.30
2022-12-23T05:12:19.224Z,10.30
2022-12-23T05:14:49.810Z,10.20
2022-12-23T05:17:39.057Z,10.20
2022-12-23T05:20:12.303Z,10.30
2022-12-23T05:22:42.962Z,10.30
2022-12-23T05:25:13.540Z,10.30
2022-12-23T05:27:44.175Z,10.30
2022-12-23T05:30:15.628Z,10.20
2022-12-23T05:32:46.249Z,10.20
2022-12-23T05:37:57.894Z,10.20
2022-12-23T05:40:29.357Z,10.20
2022-12-23T05:43:01.265Z,10.20
2022-12-23T05:45:31.891Z,10.20
2022-12-23T05:48:02.687Z,10.20
2022-12-23T05:50:33.508Z,10.10
2022-12-23T05:53:04.357Z,10.10
2022-12-23T05:55:35.421Z,10.10
2022-12-23T05:58:05.989Z,10.10
2022-12-23T06:03:13.702Z,10.10
2022-12-23T06:05:44.576Z,10.10
2022-12-23T06:08:15.216Z,10.10
2022-12-23T06:10:45.894Z,10.10
2022-12-23T06:15:55.818Z,10.10
2022-12-23T06:18:26.574Z,10.10
2022-12-23T06:20:57.223Z,10.10
2022-12-23T06:23:28.087Z,10.10
2022-12-23T06:26:02.168Z,10.10
2022-12-23T06:28:33.161Z,10.20
2022-12-23T06:31:03.838Z,10.20
2022-12-23T06:33:34.474Z,10.10
2022-12-23T06:36:05.806Z,10.10
2022-12-23T06:38:36.528Z,10.10
2022-12-23T06:41:09.477Z,10.10
2022-12-23T06:43:40.247Z,10.10
2022-12-23T06:46:10.986Z,10.10
2022-12-23T06:48:41.667Z,10.10
2022-12-23T06:51:13.081Z,10.10
2022-12-23T06:53:43.794Z,10.10
2022-12-23T06:56:14.671Z,10.00
2022-12-23T06:58:45.284Z,10.00
2022-12-23T07:01:16.139Z,10.00
2022-12-23T07:03:47.025Z,10.10
2022-12-23T07:06:17.813Z,10.00
2022-12-23T07:08:48.494Z,10.00
2022-12-23T07:11:19.304Z,10.10
2022-12-23T07:13:49.973Z,10.20
2022-12-23T07:16:20.735Z,10.20
2022-12-23T07:18:51.474Z,10.30
2022-12-23T07:21:29.045Z,10.30
2022-12-23T07:23:54.396Z,10.30
2022-12-23T07:26:25.400Z,10.30
2022-12-23T07:28:56.161Z,10.30
2022-12-23T07:31:26.814Z,10.30
2022-12-23T07:33:57.468Z,10.20
2022-12-23T07:36:28.171Z,10.30
2022-12-23T07:38:58.941Z,10.20
2022-12-23T07:41:29.819Z,10.20
2022-12-23T07:44:00.509Z,10.30
2022-12-23T07:46:31.128Z,10.20
2022-12-23T07:49:01.864Z,10.30
2022-12-23T07:54:12.421Z,10.30
2022-12-23T07:56:44.341Z,10.30
2022-12-23T07:59:16.094Z,10.30
2022-12-23T08:01:47.170Z,10.30
2022-12-23T08:04:19.134Z,10.30
2022-12-23T08:06:50.236Z,10.30
2022-12-23T08:09:20.851Z,10.30
2022-12-23T08:11:51.667Z,10.30
2022-12-23T08:14:23.497Z,10.30
2022-12-23T08:16:54.698Z,10.20
2022-12-23T08:19:25.423Z,10.20
2022-12-23T08:21:56.198Z,10.30
2022-12-23T08:24:26.849Z,10.20
2022-12-23T08:26:58.398Z,10.30
2022-12-23T08:29:35.825Z,10.30
2022-12-23T08:32:01.666Z,10.30
2022-12-23T08:34:42.217Z,10.30
2022-12-23T08:37:12.908Z,10.50
2022-12-23T08:39:43.958Z,10.50
2022-12-23T08:42:14.631Z,10.60
2022-12-23T08:44:45.464Z,10.60
2022-12-23T08:47:16.140Z,10.60
2022-12-23T08:49:46.850Z,10.60
2022-12-23T08:52:17.619Z,10.60
2022-12-23T08:54:48.463Z,10.60
2022-12-23T08:57:19.217Z,10.60
2022-12-23T08:59:50.028Z,10.50
2022-12-23T09:02:20.912Z,10.50
2022-12-23T09:04:51.745Z,10.50
2022-12-23T09:07:22.418Z,10.50
2022-12-23T09:09:53.341Z,10.50
2022-12-23T09:12:24.017Z,10.50
2022-12-23T09:14:55.102Z,10.50
2022-12-23T09:17:25.909Z,10.60
2022-12-23T09:19:56.627Z,10.60
2022-12-23T09:22:27.459Z,10.70
2022-12-23T09:25:03.249Z,10.80
2022-12-23T09:27:30.969Z,10.70
2022-12-23T09:30:01.634Z,10.70
2022-12-23T09:32:33.051Z,10.70
2022-12-23T09:35:03.749Z,10.70
2022-12-23T09:37:34.466Z,10.80
2022-12-23T09:40:06.949Z,10.80
2022-12-23T09:42:49.586Z,10.80
2022-12-23T09:45:24.840Z,10.80
2022-12-23T09:50:37.771Z,10.90
2022-12-23T09:53:10.934Z,10.90
2022-12-23T09:55:45.876Z,10.80
2022-12-23T09:58:22.965Z,10.80
2022-12-23T10:01:00.372Z,10.70
2022-12-23T10:03:35.056Z,10.70
2022-12-23T10:06:12.433Z,10.70
2022-12-23T10:08:47.020Z,10.70
2022-12-23T10:11:20.760Z,10.70
2022-12-23T10:13:53.873Z,10.80
2022-12-23T10:16:27.533Z,10.80
2022-12-23T10:19:02.283Z,10.80
2022-12-23T10:21:40.055Z,10.80
2022-12-23T10:24:14.511Z,10.70
2022-12-23T10:29:28.841Z,10.80
2022-12-23T10:34:49.026Z,10.90
2022-12-23T10:37:25.328Z,10.90
2022-12-23T10:40:01.086Z,10.90
2022-12-23T10:42:35.000Z,10.90
2022-12-23T10:45:19.686Z,11.00
2022-12-23T10:47:56.220Z,10.90
2022-12-23T10:50:40.679Z,11.00
2022-12-23T10:53:15.155Z,11.10
2022-12-23T10:55:46.878Z,11.20
2022-12-23T10:58:19.627Z,11.10
2022-12-23T11:00:53.799Z,10.80
2022-12-23T11:03:27.518Z,10.70
2022-12-23T11:05:59.787Z,10.80
2022-12-23T11:08:32.752Z,10.80
2022-12-23T11:11:03.616Z,10.80
2022-12-23T11:13:40.800Z,10.90
2022-12-23T11:16:26.743Z,10.90
2022-12-23T11:19:17.134Z,10.90
2022-12-23T11:21:56.211Z,10.90
2022-12-23T11:24:28.079Z,10.90
2022-12-23T11:27:05.478Z,10.90
2022-12-23T11:32:20.836Z,10.90
2022-12-23T11:34:53.801Z,10.90
2022-12-23T11:37:32.100Z,10.90
2022-12-23T11:40:03.223Z,11.00
2022-12-23T11:42:35.956Z,11.00
2022-12-23T11:45:10.167Z,11.00
2022-12-23T11:47:43.414Z,11.00
2022-12-23T11:50:31.225Z,11.00
2022-12-23T11:53:13.018Z,11.00
2022-12-23T11:55:50.074Z,11.10
2022-12-23T12:01:04.571Z,11.00
2022-12-23T12:03:38.109Z,11.00
2022-12-23T12:06:11.601Z,11.10
2022-12-23T12:08:43.758Z,11.10
2022-12-23T12:11:18.478Z,11.10
2022-12-23T12:13:51.610Z,11.10
2022-12-23T12:16:31.530Z,11.10
2022-12-23T12:19:05.857Z,11.10
2022-12-23T12:24:21.537Z,11.10
2022-12-23T12:27:12.642Z,11.20
2022-12-23T12:29:47.115Z,11.20
2022-12-23T12:32:23.548Z,11.20
2022-12-23T12:34:58.506Z,11.20
2022-12-23T12:40:22.065Z,11.30
2022-12-23T12:42:56.388Z,11.30
2022-12-23T12:45:30.350Z,11.30
2022-12-23T12:48:26.741Z,11.30
2022-12-23T12:51:03.264Z,11.20
2022-12-23T12:53:35.914Z,11.20
2022-12-23T12:56:10.034Z,11.10
2022-12-23T12:58:41.743Z,11.10
2022-12-23T13:01:21.697Z,11.00
2022-12-23T13:07:24.876Z,11.00
2022-12-23T13:10:01.494Z,11.00
2022-12-23T13:12:41.120Z,11.00
2022-12-23T13:15:19.524Z,11.00
2022-12-23T13:17:56.568Z,11.00
2022-12-23T13:20:30.859Z,11.00
2022-12-23T13:23:27.129Z,11.10
2022-12-23T13:25:42.246Z,11.20
2022-12-23T13:28:20.924Z,11.20
2022-12-23T13:30:54.541Z,11.20
2022-12-23T13:33:29.259Z,11.20
2022-12-23T13:36:09.528Z,11.20
2022-12-23T13:39:05.623Z,11.20
2022-12-23T13:41:39.713Z,11.20
2022-12-23T13:44:13.709Z,11.30
2022-12-23T13:46:50.491Z,11.40
2022-12-23T13:49:25.984Z,11.40
2022-12-23T13:51:59.911Z,11.40
2022-12-23T13:54:36.619Z,11.50
2022-12-23T13:57:11.318Z,11.40
2022-12-23T13:59:44.556Z,11.40
2022-12-23T14:02:52.754Z,11.40
2022-12-23T14:05:37.158Z,11.60
2022-12-23T14:08:10.425Z,11.60
2022-12-23T14:13:23.354Z,11.70
2022-12-23T14:16:19.755Z,11.70
2022-12-23T14:19:12.267Z,11.70
2022-12-23T14:21:47.735Z,11.70
2022-12-23T14:24:33.482Z,11.60
2022-12-23T14:27:22.875Z,11.50
2022-12-23T14:30:05.777Z,11.30
2022-12-23T14:32:38.137Z,11.30
2022-12-23T14:35:28.352Z,11.30
2022-12-23T14:38:30.812Z,11.30
2022-12-23T14:41:22.925Z,11.30
2022-12-23T14:43:59.669Z,11.40
2022-12-23T14:47:04.605Z,11.40
2022-12-23T14:49:45.721Z,11.40
2022-12-23T14:55:47.077Z,11.60
2022-12-23T14:58:41.762Z,11.60
2022-12-23T15:01:15.522Z,11.70
2022-12-23T15:03:50.780Z,11.70
2022-12-23T15:06:27.223Z,11.80
2022-12-23T15:08:58.611Z,11.80
2022-12-23T15:11:32.942Z,11.70
2022-12-23T15:16:46.591Z,11.70
2022-12-23T15:19:23.231Z,11.70
2022-12-23T15:22:17.916Z,11.60
2022-12-23T15:24:38.291Z,11.60
2022-12-23T15:27:26.450Z,11.60
2022-12-23T15:29:46.270Z,11.60
2022-12-23T15:32:35.649Z,11.60
2022-12-23T15:35:09.381Z,11.50
2022-12-23T15:37:40.097Z,11.60
2022-12-23T15:40:26.046Z,11.50
2022-12-23T15:42:59.531Z,11.60
2022-12-23T15:45:37.104Z,11.60
2022-12-23T15:48:10.389Z,11.60
2022-12-23T15:50:42.865Z,11.60
2022-12-23T15:53:16.693Z,11.40
2022-12-23T15:55:49.203Z,11.40
2022-12-23T15:58:24.925Z,11.50
2022-12-23T16:00:58.351Z,11.50
2022-12-23T16:03:33.735Z,11.40
2022-12-23T16:06:14.330Z,11.30
2022-12-23T16:08:45.537Z,11.40
2022-12-23T16:11:18.399Z,11.50
2022-12-23T16:16:41.202Z,11.50
2022-12-23T16:19:43.712Z,11.60
2022-12-23T16:22:24.879Z,11.60
2022-12-23T16:25:03.017Z,11.60
2022-12-23T16:27:39.788Z,11.60
2022-12-23T16:30:17.804Z,11.50
2022-12-23T16:32:54.969Z,11.50
2022-12-23T16:38:30.857Z,11.60
2022-12-23T16:41:01.568Z,11.60
2022-12-23T16:43:33.838Z,11.60
2022-12-23T16:46:05.081Z,11.50
2022-12-23T16:48:39.434Z,11.50
2022-12-23T16:51:14.129Z,11.40
2022-12-23T16:53:44.975Z,11.40
2022-12-23T16:56:17.191Z,11.40
2022-12-23T16:58:48.868Z,11.40
2022-12-23T17:01:22.307Z,11.50
2022-12-23T17:03:54.028Z,11.50
2022-12-23T17:06:25.304Z,11.40
2022-12-23T17:08:57.097Z,11.30
2022-12-23T17:11:30.932Z,11.20
2022-12-23T17:14:05.685Z,11.30
2022-12-23T17:19:12.500Z,11.30
2022-12-23T17:21:47.141Z,11.10
2022-12-23T17:24:20.846Z,11.20
2022-12-23T17:26:52.084Z,11.30
2022-12-23T17:29:23.749Z,11.40
2022-12-23T17:31:55.043Z,11.40
2022-12-23T17:34:26.741Z,11.40
2022-12-23T17:36:58.984Z,11.30
2022-12-23T17:39:29.886Z,11.40
2022-12-23T17:42:00.682Z,11.40
2022-12-23T17:44:31.500Z,11.40
2022-12-23T17:47:02.921Z,11.40
2022-12-23T17:49:33.573Z,11.40
2022-12-23T17:54:53.132Z,11.30
2022-12-23T17:57:26.948Z,11.30
2022-12-23T17:59:57.825Z,11.30
2022-12-23T18:02:32.551Z,11.30
2022-12-23T18:05:04.518Z,11.20
2022-12-23T18:07:35.273Z,11.20
2022-12-23T18:10:07.083Z,11.20
2022-12-23T18:12:40.466Z,11.30
2022-12-23T18:15:17.091Z,11.20
2022-12-23T18:18:12.803Z,11.30
2022-12-23T18:23:26.744Z,11.30
2022-12-23T18:25:59.039Z,11.30
2022-12-23T18:28:29.994Z,11.40
2022-12-23T18:31:01.295Z,11.40
2022-12-23T18:33:32.053Z,11.40
2022-12-23T18:36:02.871Z,11.30
2022-12-23T18:38:33.756Z,11.30
2022-12-23T18:41:04.692Z,11.50
2022-12-23T18:43:35.490Z,11.60
2022-12-23T18:46:06.329Z,11.60
2022-12-23T18:48:37.115Z,11.60
2022-12-23T18:51:08.138Z,11.50
2022-12-23T18:53:38.852Z,11.50
2022-12-23T18:56:11.362Z,11.60
2022-12-23T18:58:42.221Z,11.50
2022-12-23T19:01:15.095Z,11.60
2022-12-23T19:03:46.360Z,11.60
2022-12-23T19:06:17.548Z,11.70
2022-12-23T19:08:48.257Z,11.70
2022-12-23T19:11:21.470Z,11.60
2022-12-23T19:13:52.270Z,11.50
2022-12-23T19:16:23.647Z,11.40
2022-12-23T19:18:54.454Z,11.50
2022-12-23T19:21:25.603Z,11.60
2022-12-23T19:23:56.444Z,11.50
2022-12-23T19:26:27.553Z,11.40
2022-12-23T19:31:41.012Z,11.30
2022-12-23T19:34:15.494Z,11.30
2022-12-23T19:39:23.878Z,11.20
2022-12-23T19:41:54.640Z,11.20
2022-12-23T19:44:25.323Z,11.20
2022-12-23T19:46:55.975Z,11.30
2022-12-23T19:49:27.163Z,11.30
2022-12-23T19:51:58.030Z,11.50
2022-12-23T19:54:28.748Z,11.40
2022-12-23T19:56:59.633Z,11.40
2022-12-23T19:59:30.671Z,11.60
2022-12-23T20:02:01.526Z,11.90
2022-12-23T20:04:32.279Z,11.90
2022-12-23T20:07:21.692Z,12.00
2022-12-23T20:09:52.520Z,11.90
2022-12-23T20:12:23.795Z,11.70
2022-12-23T20:14:54.704Z,11.70
2022-12-23T20:17:25.421Z,11.60
2022-12-23T20:19:56.264Z,11.60
2022-12-23T20:22:27.089Z,11.50
2022-12-23T20:24:59.625Z,11.50
2022-12-23T20:27:30.346Z,11.50
2022-12-23T20:32:38.987Z,11.40
2022-12-23T20:35:11.239Z,11.40
2022-12-23T20:37:41.997Z,11.30
2022-12-23T20:40:16.229Z,11.40
2022-12-23T20:42:47.406Z,11.40
2022-12-23T20:45:18.169Z,11.30
2022-12-23T20:47:49.133Z,11.20
2022-12-23T20:50:20.221Z,11.30
2022-12-23T20:52:51.245Z,11.30
2022-12-23T20:55:22.009Z,11.30
2022-12-23T20:57:52.802Z,11.40
2022-12-23T21:00:24.014Z,11.60
2022-12-23T21:02:54.720Z,11.70
2022-12-23T21:05:25.349Z,11.60
2022-12-23T21:07:55.907Z,11.40
2022-12-23T21:10:26.723Z,11.50
2022-12-23T21:12:57.284Z,11.80
2022-12-23T21:15:27.873Z,11.80
2022-12-23T21:20:38.827Z,11.80
2022-12-23T21:23:28.396Z,11.70
2022-12-23T21:26:11.035Z,11.60
2022-12-23T21:28:44.070Z,11.40
2022-12-23T21:33:53.124Z,11.30
2022-12-23T21:39:13.414Z,11.40
2022-12-23T21:41:44.182Z,11.40
2022-12-23T21:44:15.670Z,11.50
2022-12-23T21:49:23.980Z,11.50
2022-12-23T21:51:54.720Z,11.50
2022-12-23T21:57:02.814Z,11.50
2022-12-23T21:59:35.299Z,11.40
2022-12-23T22:02:05.754Z,11.30
2022-12-23T22:04:36.579Z,11.30
2022-12-23T22:09:52.924Z,11.80
2022-12-23T22:12:23.492Z,11.80
2022-12-23T22:14:54.141Z,11.60
2022-12-23T22:17:24.921Z,11.50
2022-12-23T22:22:34.309Z,11.60
2022-12-23T22:27:43.865Z,11.50
2022-12-23T22:30:15.432Z,11.50
2022-12-23T22:32:46.199Z,11.50
2022-12-23T22:35:17.087Z,11.50
2022-12-23T22:37:47.766Z,11.50
2022-12-23T22:40:18.866Z,11.50
2022-12-23T22:42:49.498Z,11.50
2022-12-23T22:45:20.334Z,11.40
2022-12-23T22:47:51.009Z,11.50
2022-12-23T22:50:21.982Z,11.50
2022-12-23T22:52:52.562Z,11.50
2022-12-23T22:55:23.206Z,11.40
2022-12-23T22:58:12.534Z,11.40
2022-12-23T23:00:45.107Z,11.60
2022-12-23T23:03:15.731Z,11.70
2022-12-23T23:05:47.931Z,11.40
2022-12-23T23:08:18.534Z,11.30
2022-12-23T23:10:49.221Z,11.30
2022-12-23T23:13:20.321Z,11.40
2022-12-23T23:15:51.296Z,11.30
2022-12-23T23:18:22.168Z,11.20
2022-12-23T23:20:53.226Z,11.20
2022-12-23T23:26:04.194Z,11.40
2022-12-23T23:28:34.757Z,11.40
2022-12-23T23:31:39.830Z,11.60
2022-12-23T23:33:37.804Z,11.60
2022-12-23T23:36:10.609Z,11.70
2022-12-23T23:38:41.471Z,11.60
2022-12-23T23:41:14.962Z,11.60
2022-12-23T23:43:44.461Z,11.70
2022-12-23T23:46:15.151Z,11.80
2022-12-23T23:48:45.928Z,11.70
2022-12-23T23:51:16.722Z,11.70
2022-12-23T23:53:47.328Z,11.70
2022-12-23T23:56:23.797Z,11.80
2022-12-23T23:58:50.428Z,12.00
